Time;durP1;ratioP1;P1;durP2;ratioP2;P2;SDS_P1;SDS_P2;PMS_P1;PMS_P2;Temp;Humidity;BMP_temperature;BMP_pressure;BME280_temperature;BME280_humidity;BME280_pressure;Samples;Min_cycle;Max_cycle;Signal;HPM_P1;HPM_P2
2023/05/13 00:00:09;;;;;;;14.45;9.10;;;;;;;;;;5021827;28;20137;-69
2023/05/13 00:02:34;;;;;;;15.55;9.95;;;;;;;;;;5014889;28;20123;-68
2023/05/13 00:05:00;;;;;;;16.40;10.00;;;;;;;;;;5021638;28;21091;-68
2023/05/13 00:07:25;;;;;;;14.73;10.43;;;;;;;;;;5014539;28;20084;-68
2023/05/13 00:09:51;;;;;;;16.48;10.38;;;;;;;;;;5036202;28;21040;-68
2023/05/13 00:12:16;;;;;;;23.35;11.70;;;;;;;;;;5021571;28;20099;-69
2023/05/13 00:14:41;;;;;;;16.30;11.48;;;;;;;;;;5020800;28;20103;-71
2023/05/13 00:17:07;;;;;;;18.85;11.10;;;;;;;;;;5020734;28;20041;-70
2023/05/13 00:19:32;;;;;;;15.43;10.13;;;;;;;;;;5011667;28;20054;-69
2023/05/13 00:21:58;;;;;;;19.52;11.20;;;;;;;;;;5018018;28;20064;-68
2023/05/13 00:24:23;;;;;;;15.25;11.02;;;;;;;;;;5018289;28;20095;-71
2023/05/13 00:26:48;;;;;;;16.42;10.85;;;;;;;;;;5021633;28;20053;-69
2023/05/13 00:29:14;;;;;;;19.25;10.38;;;;;;;;;;5020639;28;20048;-69
2023/05/13 00:31:39;;;;;;;14.98;11.02;;;;;;;;;;5018481;28;20077;-68
2023/05/13 00:34:05;;;;;;;17.80;11.52;;;;;;;;;;5018601;28;20045;-70
2023/05/13 00:36:31;;;;;;;17.42;12.35;;;;;;;;;;5019972;28;20045;-69
2023/05/13 00:38:56;;;;;;;22.02;12.93;;;;;;;;;;5020649;28;20053;-70
2023/05/13 00:41:22;;;;;;;20.42;12.40;;;;;;;;;;5018146;28;20053;-70
2023/05/13 00:43:47;;;;;;;19.38;11.88;;;;;;;;;;5020587;28;20045;-70
2023/05/13 00:46:14;;;;;;;18.27;12.38;;;;;;;;;;5015602;28;20491;-70
2023/05/13 00:48:40;;;;;;;20.25;13.13;;;;;;;;;;5036051;28;20049;-70
2023/05/13 00:51:06;;;;;;;20.60;13.73;;;;;;;;;;5019337;28;20040;-70
2023/05/13 00:53:32;;;;;;;22.17;14.30;;;;;;;;;;5012173;28;20053;-69
2023/05/13 00:55:58;;;;;;;18.33;12.75;;;;;;;;;;5014355;28;20513;-68
2023/05/13 00:58:24;;;;;;;22.77;14.20;;;;;;;;;;5020842;28;20045;-68
2023/05/13 01:01:08;;;;;;;20.17;14.05;;;;;;;;;;4999873;28;20134;-68
2023/05/13 01:03:43;;;;;;;26.23;15.93;;;;;;;;;;5013711;28;20049;-69
2023/05/13 01:06:29;;;;;;;26.35;15.07;;;;;;;;;;5020517;28;20052;-68
2023/05/13 01:09:10;;;;;;;20.45;14.25;;;;;;;;;;5020653;28;20037;-68
2023/05/13 01:11:40;;;;;;;23.02;14.10;;;;;;;;;;5018845;28;20042;-69
2023/05/13 01:14:11;;;;;;;23.85;14.57;;;;;;;;;;5020138;28;20053;-69
2023/05/13 01:16:47;;;;;;;27.70;15.73;;;;;;;;;;5012249;28;20522;-68
2023/05/13 01:19:57;;;;;;;28.40;17.20;;;;;;;;;;5019812;28;20057;-69
2023/05/13 01:22:22;;;;;;;23.55;15.70;;;;;;;;;;5019931;28;20096;-69
2023/05/13 01:24:49;;;;;;;30.42;18.08;;;;;;;;;;5019526;28;20144;-68
2023/05/13 01:27:15;;;;;;;25.98;15.98;;;;;;;;;;5034071;28;20568;-69
2023/05/13 01:29:41;;;;;;;29.92;16.42;;;;;;;;;;5013469;28;20042;-69
2023/05/13 01:32:08;;;;;;;28.00;17.88;;;;;;;;;;5032990;28;20172;-69
2023/05/13 01:34:35;;;;;;;31.83;17.40;;;;;;;;;;5013604;28;20049;-68
2023/05/13 01:37:00;;;;;;;35.70;17.63;;;;;;;;;;5016941;28;20422;-68
2023/05/13 01:39:28;;;;;;;31.48;18.02;;;;;;;;;;5015410;28;20111;-68
2023/05/13 01:41:57;;;;;;;27.58;16.63;;;;;;;;;;4992293;28;20407;-69
2023/05/13 01:44:23;;;;;;;27.75;17.42;;;;;;;;;;5021138;28;20045;-69
2023/05/13 01:46:49;;;;;;;27.35;17.13;;;;;;;;;;5017730;28;20108;-70
2023/05/13 01:49:16;;;;;;;26.88;17.25;;;;;;;;;;5034602;28;20572;-69
2023/05/13 01:51:43;;;;;;;25.55;16.23;;;;;;;;;;5033792;28;20271;-69
2023/05/13 01:54:10;;;;;;;23.40;15.25;;;;;;;;;;5010580;28;20037;-68
2023/05/13 01:56:39;;;;;;;25.35;16.17;;;;;;;;;;5035257;28;20045;-71
2023/05/13 01:59:04;;;;;;;22.85;16.05;;;;;;;;;;5034792;28;20048;-67
2023/05/13 02:01:30;;;;;;;22.65;15.43;;;;;;;;;;5031744;28;20525;-68
2023/05/13 02:03:58;;;;;;;23.48;16.35;;;;;;;;;;5018278;28;20046;-70
2023/05/13 02:06:25;;;;;;;23.50;14.48;;;;;;;;;;5011424;28;20049;-67
2023/05/13 02:08:51;;;;;;;21.17;14.65;;;;;;;;;;5034980;28;20055;-68
2023/05/13 02:11:16;;;;;;;18.35;14.07;;;;;;;;;;5012226;28;20049;-71
2023/05/13 02:13:42;;;;;;;21.20;14.27;;;;;;;;;;4986657;28;20044;-70
2023/05/13 02:16:07;;;;;;;20.75;13.82;;;;;;;;;;5019184;28;20443;-70
2023/05/13 02:18:32;;;;;;;20.20;13.45;;;;;;;;;;5034723;28;20056;-70
2023/05/13 02:20:58;;;;;;;17.67;14.05;;;;;;;;;;5034607;28;20056;-70
2023/05/13 02:23:23;;;;;;;21.27;14.82;;;;;;;;;;5034046;28;20487;-72
2023/05/13 02:25:49;;;;;;;20.33;14.80;;;;;;;;;;5014752;28;20477;-69
2023/05/13 02:28:14;;;;;;;21.35;15.45;;;;;;;;;;5035018;28;20045;-69
2023/05/13 02:30:40;;;;;;;22.25;14.88;;;;;;;;;;5034404;28;20052;-69
2023/05/13 02:33:06;;;;;;;22.20;13.35;;;;;;;;;;5034245;28;20049;-68
2023/05/13 02:35:31;;;;;;;21.67;13.32;;;;;;;;;;5031558;28;20132;-68
2023/05/13 02:37:59;;;;;;;18.45;12.65;;;;;;;;;;5033439;28;20049;-69
2023/05/13 02:40:26;;;;;;;17.73;12.60;;;;;;;;;;5032395;28;20061;-69
2023/05/13 02:42:52;;;;;;;17.50;12.60;;;;;;;;;;5013874;28;20042;-69
2023/05/13 02:45:24;;;;;;;17.77;12.68;;;;;;;;;;5015647;28;20146;-69
2023/05/13 02:47:53;;;;;;;19.08;13.20;;;;;;;;;;5033697;28;20056;-69
2023/05/13 02:50:19;;;;;;;23.13;12.10;;;;;;;;;;5010862;28;20046;-69
2023/05/13 02:52:44;;;;;;;18.80;12.98;;;;;;;;;;5034000;28;20398;-69
2023/05/13 02:55:10;;;;;;;18.23;12.30;;;;;;;;;;5030622;28;20046;-69
2023/05/13 02:57:39;;;;;;;23.48;14.52;;;;;;;;;;5033377;28;20533;-69
2023/05/13 03:00:06;;;;;;;17.95;12.85;;;;;;;;;;5034217;28;20049;-69
2023/05/13 03:02:32;;;;;;;20.45;13.75;;;;;;;;;;5032013;28;20057;-68
2023/05/13 03:04:58;;;;;;;22.23;14.05;;;;;;;;;;5017587;28;20045;-68
2023/05/13 03:07:24;;;;;;;20.58;13.40;;;;;;;;;;5018180;28;20045;-68
2023/05/13 03:09:49;;;;;;;19.70;13.40;;;;;;;;;;5012396;28;20483;-68
2023/05/13 03:12:15;;;;;;;18.02;12.63;;;;;;;;;;5033728;28;20049;-69
2023/05/13 03:14:43;;;;;;;19.65;13.43;;;;;;;;;;5033904;28;20091;-68
2023/05/13 03:17:09;;;;;;;19.58;13.35;;;;;;;;;;5007289;28;20049;-72
2023/05/13 03:19:36;;;;;;;18.65;12.80;;;;;;;;;;5015371;28;20054;-68
2023/05/13 03:22:03;;;;;;;19.70;13.35;;;;;;;;;;5031827;28;20046;-68
2023/05/13 03:24:28;;;;;;;18.35;12.77;;;;;;;;;;5034926;28;20122;-69
2023/05/13 03:26:55;;;;;;;19.83;12.82;;;;;;;;;;5022480;28;20425;-68
2023/05/13 03:29:20;;;;;;;21.10;14.05;;;;;;;;;;5016942;28;20037;-68
2023/05/13 03:31:47;;;;;;;19.25;12.55;;;;;;;;;;4988014;28;20107;-69
2023/05/13 03:34:13;;;;;;;20.58;14.50;;;;;;;;;;5021516;28;20049;-67
2023/05/13 03:36:39;;;;;;;21.88;13.73;;;;;;;;;;5036805;28;20055;-69
2023/05/13 03:39:05;;;;;;;23.90;13.13;;;;;;;;;;5036914;28;20084;-70
2023/05/13 03:41:31;;;;;;;20.83;12.73;;;;;;;;;;5034970;28;20046;-68
2023/05/13 03:43:58;;;;;;;19.20;12.88;;;;;;;;;;5032203;28;20120;-68
2023/05/13 03:46:26;;;;;;;19.30;13.40;;;;;;;;;;5012439;28;20133;-68
2023/05/13 03:48:54;;;;;;;19.98;13.85;;;;;;;;;;5012986;28;20132;-67
2023/05/13 03:51:26;;;;;;;21.95;13.32;;;;;;;;;;5036585;28;20203;-68
2023/05/13 03:53:51;;;;;;;20.38;12.77;;;;;;;;;;5035734;28;20583;-69
2023/05/13 03:56:17;;;;;;;24.50;16.10;;;;;;;;;;5018438;28;20693;-70
2023/05/13 03:58:44;;;;;;;23.05;15.15;;;;;;;;;;4988116;28;20048;-69
2023/05/13 04:01:09;;;;;;;25.90;15.35;;;;;;;;;;5033822;28;20038;-68
2023/05/13 04:03:35;;;;;;;25.45;16.40;;;;;;;;;;5034383;28;20370;-68
2023/05/13 04:06:01;;;;;;;25.15;15.45;;;;;;;;;;5012089;28;20050;-70
2023/05/13 04:08:26;;;;;;;26.88;17.98;;;;;;;;;;5037022;28;20491;-69
2023/05/13 04:10:52;;;;;;;27.85;16.17;;;;;;;;;;5019617;28;20103;-69
2023/05/13 04:13:18;;;;;;;30.25;17.77;;;;;;;;;;5035860;28;20084;-68
2023/05/13 04:15:43;;;;;;;27.60;17.00;;;;;;;;;;5035043;28;20128;-69
2023/05/13 04:18:09;;;;;;;26.27;16.45;;;;;;;;;;5013538;28;20088;-69
2023/05/13 04:20:38;;;;;;;26.67;16.25;;;;;;;;;;5020258;28;20128;-68
2023/05/13 04:23:04;;;;;;;28.83;16.73;;;;;;;;;;5021482;28;20103;-69
2023/05/13 04:25:29;;;;;;;31.08;17.65;;;;;;;;;;5016277;28;20061;-68
2023/05/13 04:27:55;;;;;;;27.85;17.13;;;;;;;;;;5036453;28;20038;-68
2023/05/13 04:30:28;;;;;;;29.45;16.92;;;;;;;;;;5019301;28;20107;-68
2023/05/13 04:32:54;;;;;;;32.97;17.67;;;;;;;;;;5037090;28;20049;-69
2023/05/13 04:35:20;;;;;;;30.55;18.15;;;;;;;;;;5018680;28;20053;-69
2023/05/13 04:37:51;;;;;;;29.05;17.50;;;;;;;;;;5035635;28;20048;-69
2023/05/13 04:40:17;;;;;;;28.52;17.10;;;;;;;;;;5036919;28;20059;-69
2023/05/13 04:42:44;;;;;;;27.20;16.70;;;;;;;;;;5021338;28;20038;-69
2023/05/13 04:45:10;;;;;;;30.52;17.50;;;;;;;;;;5035479;28;20041;-70
2023/05/13 04:47:36;;;;;;;29.55;16.98;;;;;;;;;;5034284;28;20096;-69
2023/05/13 04:50:02;;;;;;;31.88;17.77;;;;;;;;;;4990313;28;20064;-69
2023/05/13 04:52:29;;;;;;;32.10;18.60;;;;;;;;;;5019325;28;20045;-70
2023/05/13 04:54:54;;;;;;;31.55;17.08;;;;;;;;;;5036380;28;20048;-69
2023/05/13 04:57:20;;;;;;;29.77;17.88;;;;;;;;;;5020773;28;20132;-69
2023/05/13 04:59:45;;;;;;;34.58;17.85;;;;;;;;;;5019496;28;20103;-69
2023/05/13 05:02:11;;;;;;;29.17;17.20;;;;;;;;;;5011634;28;20993;-69
2023/05/13 05:04:37;;;;;;;36.17;18.55;;;;;;;;;;5019060;28;20045;-68
2023/05/13 05:07:07;;;;;;;33.83;17.60;;;;;;;;;;5036606;28;20545;-69
2023/05/13 05:09:33;;;;;;;31.80;18.05;;;;;;;;;;5034844;28;20045;-69
2023/05/13 05:11:59;;;;;;;33.67;18.60;;;;;;;;;;5019097;28;20034;-69
2023/05/13 05:14:26;;;;;;;33.00;17.77;;;;;;;;;;5035681;28;20120;-68
2023/05/13 05:16:53;;;;;;;30.75;17.77;;;;;;;;;;5009665;28;20771;-71
2023/05/13 05:19:22;;;;;;;31.23;18.15;;;;;;;;;;5012552;28;20042;-68
2023/05/13 05:21:51;;;;;;;36.55;17.60;;;;;;;;;;5032840;28;20037;-69
2023/05/13 05:24:17;;;;;;;34.67;18.73;;;;;;;;;;5033484;28;20052;-69
2023/05/13 05:26:43;;;;;;;37.15;19.88;;;;;;;;;;5008236;28;20049;-71
2023/05/13 05:29:09;;;;;;;38.83;20.33;;;;;;;;;;5027985;28;20041;-70
2023/05/13 05:31:34;;;;;;;37.42;19.20;;;;;;;;;;5010163;28;20084;-69
2023/05/13 05:34:01;;;;;;;36.22;19.25;;;;;;;;;;5026536;28;20795;-69
2023/05/13 05:36:28;;;;;;;32.83;18.25;;;;;;;;;;5026518;28;20179;-69
2023/05/13 05:38:53;;;;;;;34.55;19.25;;;;;;;;;;5016451;28;20398;-71
2023/05/13 05:41:21;;;;;;;36.80;17.92;;;;;;;;;;5032073;28;20054;-71
2023/05/13 05:43:47;;;;;;;32.55;17.92;;;;;;;;;;5032943;28;20048;-71
2023/05/13 05:46:12;;;;;;;35.72;18.70;;;;;;;;;;5015417;28;20050;-69
2023/05/13 05:48:38;;;;;;;32.42;19.40;;;;;;;;;;5025307;28;20133;-69
2023/05/13 05:51:04;;;;;;;27.02;15.40;;;;;;;;;;5033019;28;20391;-70
2023/05/13 05:53:34;;;;;;;34.17;18.90;;;;;;;;;;5002006;28;20041;-70
2023/05/13 05:56:04;;;;;;;35.53;17.50;;;;;;;;;;5015810;28;20037;-69
2023/05/13 05:58:30;;;;;;;30.73;17.67;;;;;;;;;;5010585;28;20048;-69
2023/05/13 06:00:57;;;;;;;32.15;18.52;;;;;;;;;;5031107;28;20041;-69
2023/05/13 06:03:22;;;;;;;27.42;17.08;;;;;;;;;;5007508;28;20076;-69
2023/05/13 06:05:48;;;;;;;27.77;15.88;;;;;;;;;;5011969;28;20069;-69
2023/05/13 06:08:13;;;;;;;30.52;15.48;;;;;;;;;;5005313;28;20079;-69
2023/05/13 06:10:39;;;;;;;25.10;15.55;;;;;;;;;;5011995;28;20111;-69
2023/05/13 06:13:05;;;;;;;28.48;16.92;;;;;;;;;;5017533;28;20038;-69
2023/05/13 06:15:31;;;;;;;32.38;18.05;;;;;;;;;;5030855;28;20045;-68
2023/05/13 06:17:56;;;;;;;29.23;16.20;;;;;;;;;;5011204;28;20113;-68
2023/05/13 06:20:22;;;;;;;27.38;15.60;;;;;;;;;;5014418;28;20041;-67
2023/05/13 06:22:49;;;;;;;24.70;15.50;;;;;;;;;;5010703;28;20041;-68
2023/05/13 06:25:15;;;;;;;31.17;16.00;;;;;;;;;;5028788;28;20033;-67
2023/05/13 06:27:40;;;;;;;28.75;16.35;;;;;;;;;;5010025;28;20136;-68
2023/05/13 06:30:06;;;;;;;30.30;16.88;;;;;;;;;;5010886;28;20041;-67
2023/05/13 06:32:32;;;;;;;27.75;17.70;;;;;;;;;;5005492;28;20041;-69
2023/05/13 06:34:57;;;;;;;25.13;15.68;;;;;;;;;;5031802;28;20044;-70
2023/05/13 06:37:23;;;;;;;29.33;16.80;;;;;;;;;;5028259;28;20632;-70
2023/05/13 06:39:49;;;;;;;31.20;17.95;;;;;;;;;;5016036;28;20616;-70
2023/05/13 06:42:15;;;;;;;27.52;16.92;;;;;;;;;;5014338;28;20038;-70
2023/05/13 06:44:52;;;;;;;29.90;17.77;;;;;;;;;;5021941;28;20156;-70
2023/05/13 06:47:24;;;;;;;;;;;;;;;;;;5029399;28;20119;-69
2023/05/13 06:49:49;;;;;;;25.73;15.82;;;;;;;;;;5016170;28;19925;-70
2023/05/13 06:52:15;;;;;;;29.58;17.80;;;;;;;;;;5033237;28;20140;-70
2023/05/13 06:54:40;;;;;;;30.80;18.80;;;;;;;;;;5014445;28;20038;-69
2023/05/13 06:57:06;;;;;;;29.38;17.70;;;;;;;;;;5018576;28;20375;-70
2023/05/13 06:59:32;;;;;;;28.67;16.80;;;;;;;;;;5012698;28;20085;-70
2023/05/13 07:01:57;;;;;;;35.10;16.95;;;;;;;;;;5007785;28;20053;-70
2023/05/13 07:04:22;;;;;;;25.70;15.05;;;;;;;;;;5015339;28;20065;-69
2023/05/13 07:06:49;;;;;;;29.45;17.77;;;;;;;;;;5021713;28;20049;-70
2023/05/13 07:09:14;;;;;;;30.70;18.20;;;;;;;;;;5004348;28;20046;-69
2023/05/13 07:11:40;;;;;;;31.92;19.20;;;;;;;;;;5016650;28;20418;-70
2023/05/13 07:14:05;;;;;;;30.60;16.95;;;;;;;;;;5006232;28;20057;-70
2023/05/13 07:16:31;;;;;;;31.83;17.80;;;;;;;;;;5020952;28;20053;-70
2023/05/13 07:18:56;;;;;;;31.77;17.35;;;;;;;;;;5018196;28;20097;-70
2023/05/13 07:21:22;;;;;;;38.03;19.35;;;;;;;;;;5010675;28;20045;-70
2023/05/13 07:23:47;;;;;;;30.90;17.58;;;;;;;;;;5020019;28;20057;-70
2023/05/13 07:26:12;;;;;;;30.27;17.48;;;;;;;;;;5020516;28;20049;-70
2023/05/13 07:28:38;;;;;;;25.45;15.95;;;;;;;;;;5013395;28;20087;-70
2023/05/13 07:31:04;;;;;;;26.85;15.40;;;;;;;;;;5015205;28;20038;-70
2023/05/13 07:33:30;;;;;;;24.90;16.95;;;;;;;;;;5009303;28;20061;-70
2023/05/13 07:35:56;;;;;;;25.02;16.88;;;;;;;;;;5016788;28;20051;-70
2023/05/13 07:38:21;;;;;;;28.27;15.60;;;;;;;;;;5015807;28;20061;-70
2023/05/13 07:40:47;;;;;;;20.50;13.27;;;;;;;;;;5009532;28;20057;-70
2023/05/13 07:43:12;;;;;;;22.02;15.63;;;;;;;;;;5020001;28;20823;-69
2023/05/13 07:45:38;;;;;;;25.58;15.68;;;;;;;;;;5016231;28;20049;-70
2023/05/13 07:48:04;;;;;;;24.55;14.35;;;;;;;;;;5013511;28;20205;-70
2023/05/13 07:50:30;;;;;;;25.67;15.38;;;;;;;;;;5012592;28;20057;-70
2023/05/13 07:52:56;;;;;;;22.38;14.02;;;;;;;;;;5015646;28;20041;-70
2023/05/13 07:55:22;;;;;;;20.10;13.32;;;;;;;;;;5014268;28;20045;-70
2023/05/13 07:57:47;;;;;;;23.27;14.60;;;;;;;;;;5011562;28;20052;-71
2023/05/13 08:00:15;;;;;;;23.20;15.80;;;;;;;;;;5015871;28;20498;-70
2023/05/13 08:02:42;;;;;;;26.02;15.82;;;;;;;;;;5001280;28;20056;-71
2023/05/13 08:05:08;;;;;;;24.33;16.77;;;;;;;;;;5001489;28;20052;-71
2023/05/13 08:07:34;;;;;;;28.13;15.70;;;;;;;;;;5004458;28;20053;-71
2023/05/13 08:09:59;;;;;;;24.48;15.15;;;;;;;;;;5002055;28;20041;-71
2023/05/13 08:12:26;;;;;;;26.80;16.30;;;;;;;;;;4999519;28;20061;-71
2023/05/13 08:14:51;;;;;;;24.98;16.38;;;;;;;;;;5002289;28;20049;-71
2023/05/13 08:17:18;;;;;;;20.25;13.43;;;;;;;;;;4997445;28;20592;-72
2023/05/13 08:19:44;;;;;;;25.05;15.85;;;;;;;;;;4998932;28;20140;-71
2023/05/13 08:22:09;;;;;;;24.83;15.10;;;;;;;;;;5003804;28;20046;-71
2023/05/13 08:24:39;;;;;;;19.45;14.70;;;;;;;;;;5006715;28;20046;-72
2023/05/13 08:27:05;;;;;;;21.42;13.57;;;;;;;;;;5007285;28;20069;-72
2023/05/13 08:29:30;;;;;;;20.38;14.07;;;;;;;;;;5014123;28;20092;-71
2023/05/13 08:31:56;;;;;;;22.85;13.32;;;;;;;;;;5019586;28;20045;-71
2023/05/13 08:34:21;;;;;;;22.20;14.07;;;;;;;;;;5014056;28;20057;-71
2023/05/13 08:36:47;;;;;;;19.35;12.65;;;;;;;;;;5019293;28;20538;-71
2023/05/13 08:39:12;;;;;;;19.67;13.50;;;;;;;;;;5019422;28;20045;-71
2023/05/13 08:41:40;;;;;;;17.65;12.65;;;;;;;;;;5012264;28;20077;-71
2023/05/13 08:44:06;;;;;;;17.58;12.05;;;;;;;;;;5012572;28;20049;-71
2023/05/13 08:46:35;;;;;;;18.05;11.90;;;;;;;;;;5015850;28;20115;-71
2023/05/13 08:49:01;;;;;;;16.38;11.98;;;;;;;;;;5020911;28;20049;-71
2023/05/13 08:51:26;;;;;;;16.15;11.60;;;;;;;;;;5019809;28;20525;-71
2023/05/13 08:53:53;;;;;;;17.40;12.10;;;;;;;;;;5020039;28;20055;-71
2023/05/13 08:56:21;;;;;;;19.42;12.45;;;;;;;;;;5018500;28;20041;-71
2023/05/13 08:58:46;;;;;;;17.35;11.68;;;;;;;;;;5011214;28;20053;-71
2023/05/13 09:01:12;;;;;;;14.95;11.77;;;;;;;;;;5010655;28;20060;-72
2023/05/13 09:03:50;;;;;;;16.30;11.65;;;;;;;;;;5012042;28;20446;-71
2023/05/13 09:06:15;;;;;;;18.35;11.85;;;;;;;;;;5013855;28;20045;-71
2023/05/13 09:08:41;;;;;;;18.38;13.52;;;;;;;;;;5033600;28;20049;-71
2023/05/13 09:11:06;;;;;;;17.08;13.05;;;;;;;;;;5002987;28;20046;-71
2023/05/13 09:13:32;;;;;;;19.15;13.00;;;;;;;;;;5015603;28;20054;-71
2023/05/13 09:15:57;;;;;;;19.90;13.63;;;;;;;;;;5016343;28;20044;-71
2023/05/13 09:18:28;;;;;;;19.83;14.43;;;;;;;;;;5007967;28;20495;-71
2023/05/13 09:20:54;;;;;;;21.77;14.57;;;;;;;;;;5008017;28;20433;-70
2023/05/13 09:23:22;;;;;;;15.85;12.57;;;;;;;;;;5012462;28;21288;-71
2023/05/13 09:25:48;;;;;;;15.07;11.95;;;;;;;;;;5014058;28;20053;-71
2023/05/13 09:28:14;;;;;;;17.17;12.13;;;;;;;;;;5015262;28;20061;-69
2023/05/13 09:30:44;;;;;;;16.00;11.48;;;;;;;;;;5014231;28;20045;-70
2023/05/13 09:33:18;;;;;;;12.75;10.55;;;;;;;;;;5008690;28;20049;-69
2023/05/13 09:35:48;;;;;;;14.02;11.02;;;;;;;;;;5017956;28;20045;-69
2023/05/13 09:38:17;;;;;;;14.20;10.43;;;;;;;;;;5011552;28;20112;-69
2023/05/13 09:40:56;;;;;;;15.32;12.40;;;;;;;;;;5014227;28;20045;-69
2023/05/13 09:43:25;;;;;;;14.80;11.45;;;;;;;;;;5011950;28;20096;-69
2023/05/13 09:45:55;;;;;;;12.60;10.15;;;;;;;;;;5016021;28;20091;-69
2023/05/13 09:48:23;;;;;;;10.18;9.07;;;;;;;;;;5016273;28;20041;-69
2023/05/13 09:50:50;;;;;;;10.50;8.60;;;;;;;;;;5008962;28;20579;-70
2023/05/13 09:53:16;;;;;;;9.13;8.02;;;;;;;;;;5033053;28;20042;-70
2023/05/13 09:55:45;;;;;;;9.00;7.32;;;;;;;;;;5008347;28;20050;-70
2023/05/13 09:58:11;;;;;;;9.35;7.65;;;;;;;;;;5010725;28;20047;-69
2023/05/13 10:00:40;;;;;;;8.45;7.40;;;;;;;;;;5013374;28;20049;-69
2023/05/13 10:03:06;;;;;;;12.30;8.98;;;;;;;;;;5012045;28;20068;-69
2023/05/13 10:05:32;;;;;;;8.60;7.70;;;;;;;;;;5012357;28;20053;-70
2023/05/13 10:08:00;;;;;;;10.65;8.57;;;;;;;;;;5015670;28;20052;-69
2023/05/13 10:10:29;;;;;;;7.93;6.90;;;;;;;;;;5015021;28;20053;-69
2023/05/13 10:12:54;;;;;;;8.88;7.60;;;;;;;;;;5011524;28;20058;-69
2023/05/13 10:15:20;;;;;;;9.48;7.88;;;;;;;;;;5016556;28;20045;-69
2023/05/13 10:17:46;;;;;;;8.30;7.10;;;;;;;;;;5008136;28;20042;-70
2023/05/13 10:20:11;;;;;;;7.93;7.13;;;;;;;;;;5016347;28;20498;-69
2023/05/13 10:22:38;;;;;;;10.07;8.02;;;;;;;;;;5011521;28;20132;-70
2023/05/13 10:25:05;;;;;;;7.00;6.20;;;;;;;;;;5007660;28;20218;-69
2023/05/13 10:27:32;;;;;;;7.70;6.20;;;;;;;;;;5007872;28;20045;-69
2023/05/13 10:29:59;;;;;;;7.63;6.18;;;;;;;;;;5010651;28;20100;-69
2023/05/13 10:32:28;;;;;;;6.32;5.40;;;;;;;;;;5009401;28;20042;-68
2023/05/13 10:35:04;;;;;;;7.97;5.85;;;;;;;;;;5011715;28;20321;-69
2023/05/13 10:37:49;;;;;;;7.63;5.93;;;;;;;;;;5013095;28;20081;-68
2023/05/13 10:40:51;;;;;;;7.88;5.80;;;;;;;;;;5011617;28;20057;-69
2023/05/13 10:43:21;;;;;;;6.38;5.00;;;;;;;;;;5011695;28;20056;-69
2023/05/13 10:45:48;;;;;;;7.13;5.20;;;;;;;;;;5015700;28;20041;-68
2023/05/13 10:48:15;;;;;;;9.93;6.00;;;;;;;;;;5014745;28;20041;-69
2023/05/13 10:50:56;;;;;;;6.60;5.68;;;;;;;;;;5010680;28;20056;-69
2023/05/13 10:53:27;;;;;;;5.80;5.20;;;;;;;;;;5011484;28;20054;-69
2023/05/13 10:55:55;;;;;;;9.10;5.13;;;;;;;;;;5014258;28;20482;-69
2023/05/13 10:58:28;;;;;;;6.82;5.95;;;;;;;;;;5013162;28;20391;-69
2023/05/13 11:01:10;;;;;;;6.80;5.80;;;;;;;;;;5011481;28;20053;-69
2023/05/13 11:03:39;;;;;;;7.00;5.90;;;;;;;;;;5012762;28;20144;-68
2023/05/13 11:06:13;;;;;;;6.68;5.97;;;;;;;;;;5008675;28;20076;-69
2023/05/13 11:08:41;;;;;;;9.38;6.55;;;;;;;;;;5010754;28;20060;-70
2023/05/13 11:11:23;;;;;;;7.72;6.55;;;;;;;;;;5010982;28;20116;-68
2023/05/13 11:13:54;;;;;;;6.88;6.18;;;;;;;;;;5024478;28;20076;-70
2023/05/13 11:16:22;;;;;;;6.80;5.38;;;;;;;;;;5013339;28;20050;-69
2023/05/13 11:18:50;;;;;;;7.22;5.85;;;;;;;;;;5012638;28;20049;-70
2023/05/13 11:21:15;;;;;;;7.30;6.55;;;;;;;;;;5009451;28;20069;-70
2023/05/13 11:23:54;;;;;;;7.03;6.32;;;;;;;;;;5012059;28;20042;-70
2023/05/13 11:26:20;;;;;;;6.40;5.65;;;;;;;;;;5011467;28;20136;-69
2023/05/13 11:28:57;;;;;;;9.13;5.38;;;;;;;;;;5011070;28;20041;-71
2023/05/13 11:31:23;;;;;;;5.43;4.93;;;;;;;;;;5010110;28;20426;-71
2023/05/13 11:34:14;;;;;;;6.00;5.38;;;;;;;;;;5007308;28;20107;-70
2023/05/13 11:36:43;;;;;;;6.50;5.17;;;;;;;;;;5014013;28;20053;-69
2023/05/13 11:39:16;;;;;;;7.85;6.10;;;;;;;;;;5011651;28;20653;-70
2023/05/13 11:41:44;;;;;;;7.72;6.00;;;;;;;;;;5008525;28;20050;-71
2023/05/13 11:44:12;;;;;;;9.45;6.68;;;;;;;;;;5008229;28;20042;-69
2023/05/13 11:46:37;;;;;;;6.80;6.10;;;;;;;;;;5008217;28;20056;-69
2023/05/13 11:49:03;;;;;;;8.90;6.03;;;;;;;;;;5006315;28;20049;-69
2023/05/13 11:51:30;;;;;;;7.93;7.13;;;;;;;;;;5015263;28;20128;-69
2023/05/13 11:54:00;;;;;;;6.78;6.07;;;;;;;;;;5018671;28;20081;-69
2023/05/13 11:56:27;;;;;;;11.35;6.95;;;;;;;;;;5016916;28;20049;-69
2023/05/13 11:58:53;;;;;;;8.93;6.82;;;;;;;;;;5009920;28;20489;-69
2023/05/13 12:01:20;;;;;;;7.15;6.30;;;;;;;;;;5015109;28;20049;-69
2023/05/13 12:03:46;;;;;;;7.40;6.55;;;;;;;;;;5013638;28;20061;-68
2023/05/13 12:06:12;;;;;;;7.07;6.38;;;;;;;;;;5032045;28;20057;-69
2023/05/13 12:08:45;;;;;;;6.90;6.20;;;;;;;;;;5012810;28;20064;-68
2023/05/13 12:11:12;;;;;;;6.40;5.80;;;;;;;;;;5016349;28;20129;-68
2023/05/13 12:13:40;;;;;;;5.97;5.35;;;;;;;;;;5011688;28;20072;-69
2023/05/13 12:16:07;;;;;;;5.90;5.30;;;;;;;;;;5015005;28;20068;-69
2023/05/13 12:18:33;;;;;;;6.55;4.95;;;;;;;;;;5013159;28;20496;-69
2023/05/13 12:20:58;;;;;;;5.18;4.68;;;;;;;;;;5006013;28;20049;-69
2023/05/13 12:23:24;;;;;;;5.00;4.60;;;;;;;;;;5010272;28;20049;-68
2023/05/13 12:25:50;;;;;;;4.85;4.32;;;;;;;;;;5008165;28;20052;-69
2023/05/13 12:28:20;;;;;;;4.13;3.83;;;;;;;;;;5013801;28;20049;-68
2023/05/13 12:30:58;;;;;;;4.30;4.00;;;;;;;;;;5015867;28;20049;-68
2023/05/13 12:33:28;;;;;;;4.07;3.78;;;;;;;;;;5014293;28;20038;-69
2023/05/13 12:36:35;;;;;;;5.90;3.47;;;;;;;;;;5013779;28;20667;-70
2023/05/13 12:39:01;;;;;;;4.30;3.63;;;;;;;;;;5013230;28;20053;-68
2023/05/13 12:41:37;;;;;;;3.92;3.58;;;;;;;;;;5008726;28;20622;-68
2023/05/13 12:44:15;;;;;;;3.03;2.83;;;;;;;;;;5013035;28;20697;-68
2023/05/13 12:46:51;;;;;;;5.47;3.30;;;;;;;;;;5019745;28;20060;-69
2023/05/13 12:49:17;;;;;;;3.47;3.17;;;;;;;;;;5017117;28;20123;-69
2023/05/13 12:51:42;;;;;;;3.00;2.80;;;;;;;;;;5015012;28;20053;-69
2023/05/13 12:54:09;;;;;;;3.80;3.15;;;;;;;;;;5013353;28;20041;-69
2023/05/13 12:56:35;;;;;;;3.00;2.80;;;;;;;;;;5012211;28;20045;-69
2023/05/13 12:59:00;;;;;;;2.67;2.47;;;;;;;;;;5020767;28;20103;-69
2023/05/13 13:01:26;;;;;;;2.67;2.45;;;;;;;;;;5016132;28;20135;-69
2023/05/13 13:03:51;;;;;;;2.58;2.38;;;;;;;;;;5035752;28;20064;-69
2023/05/13 13:06:17;;;;;;;2.30;2.10;;;;;;;;;;5013501;28;20056;-69
2023/05/13 13:08:42;;;;;;;2.38;2.17;;;;;;;;;;5021443;28;20061;-68
2023/05/13 13:11:08;;;;;;;2.28;2.08;;;;;;;;;;5015143;28;20053;-69
2023/05/13 13:13:33;;;;;;;2.20;2.05;;;;;;;;;;5016355;28;20049;-69
2023/05/13 13:15:59;;;;;;;5.40;2.40;;;;;;;;;;5018949;28;20084;-69
2023/05/13 13:18:25;;;;;;;2.25;2.10;;;;;;;;;;5021140;28;20045;-69
2023/05/13 13:20:51;;;;;;;1.80;1.70;;;;;;;;;;5020948;28;20422;-70
2023/05/13 13:23:17;;;;;;;2.78;1.90;;;;;;;;;;5018707;28;20510;-69
2023/05/13 13:25:43;;;;;;;2.20;2.10;;;;;;;;;;5020595;28;20045;-69
2023/05/13 13:28:09;;;;;;;2.38;2.17;;;;;;;;;;5013984;28;20057;-69
2023/05/13 13:30:34;;;;;;;1.70;1.60;;;;;;;;;;5015901;28;20096;-69
2023/05/13 13:33:00;;;;;;;3.05;2.00;;;;;;;;;;5013837;28;20041;-69
2023/05/13 13:35:25;;;;;;;2.30;2.10;;;;;;;;;;5012534;28;20082;-69
2023/05/13 13:37:51;;;;;;;1.98;1.88;;;;;;;;;;5019068;28;20057;-69
2023/05/13 13:40:18;;;;;;;2.25;2.03;;;;;;;;;;5020734;28;20076;-69
2023/05/13 13:42:43;;;;;;;1.70;1.60;;;;;;;;;;5013121;28;20188;-69
2023/05/13 13:45:09;;;;;;;1.98;1.88;;;;;;;;;;5019906;28;20136;-70
2023/05/13 13:47:35;;;;;;;2.08;1.98;;;;;;;;;;5013859;28;20050;-69
2023/05/13 13:50:00;;;;;;;2.70;2.10;;;;;;;;;;5020126;28;20588;-70
2023/05/13 13:52:27;;;;;;;2.38;2.17;;;;;;;;;;5020273;28;20045;-69
2023/05/13 13:54:53;;;;;;;2.63;1.90;;;;;;;;;;5020198;28;20910;-69
2023/05/13 13:57:19;;;;;;;1.83;1.73;;;;;;;;;;5015963;28;20049;-69
2023/05/13 13:59:44;;;;;;;2.22;2.03;;;;;;;;;;5011340;28;20118;-69
2023/05/13 14:02:09;;;;;;;2.05;1.95;;;;;;;;;;5020323;28;20075;-69
2023/05/13 14:04:35;;;;;;;1.98;1.88;;;;;;;;;;5020099;28;20094;-68
2023/05/13 14:07:00;;;;;;;2.03;1.92;;;;;;;;;;5011957;28;20049;-68
2023/05/13 14:09:26;;;;;;;2.47;2.28;;;;;;;;;;5017599;28;20044;-69
2023/05/13 14:11:51;;;;;;;1.80;1.70;;;;;;;;;;5017895;28;20422;-68
2023/05/13 14:14:17;;;;;;;1.77;1.67;;;;;;;;;;5012893;28;20080;-68
2023/05/13 14:16:43;;;;;;;2.00;1.90;;;;;;;;;;5016520;28;20045;-68
2023/05/13 14:19:10;;;;;;;1.80;1.70;;;;;;;;;;5012147;28;20456;-68
2023/05/13 14:21:35;;;;;;;1.60;1.50;;;;;;;;;;5014735;28;20061;-68
2023/05/13 14:24:01;;;;;;;1.42;1.38;;;;;;;;;;5007136;28;20049;-68
2023/05/13 14:26:26;;;;;;;1.20;1.20;;;;;;;;;;5011548;28;20164;-68